Terminal Aerodrome Forecast
Issued by NWS Northern Indiana

Home | Current Version | Previous Version | Text Only | Print | Product List | Glossary Off
Versions: 1 2 3 4 5 6 7 8 9 10 11 12 13 14 15 16

000
FTUS43 KIWX 210520
TAFFWA
TAF
KFWA 210520Z 2106/2206 18003KT P6SM SKC
     FM211100 18003KT 5SM BR BKN250
     FM211500 17008KT P6SM FEW050
     FM220100 VRB03KT P6SM SCT250=

USA.gov is the U.S. government's official web portal to all federal, state and local government web resources and services.